Wilmington, IL (60481)

9:11 AM CDT on September 21, 2014 (GMT -0500)
Lavita Shores | Change Station
CLOSE
Current Station
Personal Weather Station
Location: Wilmington, IL
Elevation: 558 ft
Nearby Weather Stations

Elev 558 ft 41.29 °N, 88.15 °W | Updated 7 minutes ago

Clear
Clear
61.0 °F
Feels Like 61.0 °F
N
6.3
Wind Variable Wind from West

Today
High -- | Low -- °F
--% Chance of Precip.
Yesterday
High -- | Low -- °F
Precip. -- in
6:38 AM 6:51 PM
Waning Crescent, 7% visible
Pressure 29.86 in
Visibility 10.0 miles
Clouds Scattered Clouds 2800 ft
Scattered Clouds 6500 ft
Dew Point 56 °F
Humidity 83%
Rainfall 0.00 in
Snow Depth Not available.
UV 2 out of 12
Pollen 3.90 out of 12
Ozone Good
PM2.5 Good
Flu Activity Not available.
METAR KJOT 211355Z AUTO 30012G20KT 280V350 10SM SCT028 SCT065 16/11 A2986 RMK AO2 T01590109

More Conditions Fewer Conditions

Pressure 29.86 in
Visibility 10.0 miles
Clouds Scattered Clouds 2800 ft
Scattered Clouds 6500 ft
Dew Point 56 °F
Humidity 83%
Rainfall 0.00 in
Snow Depth Not available.
UV 2 out of 12
Pollen 3.90 out of 12
Ozone Good
PM2.5 Good
Flu Activity Not available.
METAR KJOT 211355Z AUTO 30012G20KT 280V350 10SM SCT028 SCT065 16/11 A2986 RMK AO2 T01590109

More Conditions Fewer Conditions

10-Day Weather Forecast

Almanac

Astronomy

Sep. 21, 2014 Rise Set
Actual Time 6:38 AM CDT 6:51 PM CDT
Civil Twilight 6:11 AM CDT 7:18 PM CDT
Nautical Twilight 5:38 AM CDT 7:51 PM CDT
Astronomical Twilight 5:05 AM CDT 8:24 PM CDT
Moon 4:11 AM CDT 5:28 PM CDT
Length of Visible Light 13h 07m
Length of Day
12h 12m
Tomorrow will be 2m 44s shorter.
Waning Crescent, 7% of the Moon is Illuminated
Today
Waning Crescent
Sep 24
New
Oct 1
First Quarter
Oct 8
Full
Oct 15
Last Quarter

Today's Extremes

State Highs State Lows

Community

WunderPhotos

Upload Photos

1,755,147 photos uploaded!

Nearby

Air Quality

  Air Quality AQ Index Pollutant
Yesterday Moderate
PM2.5
Yesterday Good
OZONE
Current Good
PM2.5
Current Good
OZONE
Sunday Good
PM2.5
Monday Good
PM2.5
Tuesday Moderate
PM2.5

Snow Depth

Station Depth Elevation
No new snow has been reported.

Earthquake Activity

City Distance Mag. Time & Date
No recent earthquake activity has been reported nearby.
Minimum magnitude displayed is 2.5.

Coastal Water Temperatures

Place Temperature
No Stations Reporting

Nearby Weather Stations